Tiempo atmosférico en la estación meteorológica de Elgeta, Gipuzkoa (470 m.)



Fecha
DESCASC
Temp. máxima en grados centígrados (hora)
DESCASC
Temp. mínima en grados centígrados (hora)
DESCASC
Temp. media en grados centígrados
DESCASC
Racha de viento máxima en m/sg (hora)
DESCASC
Velocidad máxima media en intervalos de 10 minutos(hora)
DESCASC
Precipitaciones diarias en mm
DESCASC
Precipitaciones de 00:00 a 06:00 en mm
DESCASC
Precipitaciones de 06:00 a 12:00 en mm
DESCASC
Precipitaciones de 12:00 a 18:00 en mm
DESCASC
Precipitaciones de 18:00 a 24:00 en mm
DESCASC
17-02-2019 18.3 (15:50) 7.5 (07:00) 12.9 11.39 (13:50) 5.28 (14:10) 0 0 0 0 0
16-02-2019 17.2 (14:40) 6.2 (07:50) 11.7 9.44 (15:30) 3.89 (12:30) 0 0 0 0 0
15-02-2019 17.9 (15:30) 7.1 (08:40) 12.5 6.94 (13:00) 3.61 (13:50) 0 0 0 0 0
14-02-2019 17.1 (15:30) 6.8 (00:00) 12 8.33 (15:00) 4.17 (16:00) 0 0 0 0 0
13-02-2019 15.7 (15:20) 2.2 (00:00) 8.9 5.28 (14:10) 2.78 (03:50) 0 0 0 0 0
12-02-2019 11.4 (15:20) 1.6 (00:00) 6.5 3.33 (07:30) 1.94 (06:40) 0.6 0.4 0.2 0 0
11-02-2019 6.2 (12:20) 4.2 (00:00) 5.2 7.22 (03:10) 3.33 (08:00) 4.6 0.2 1.2 3.2 0
10-02-2019 11.3 (00:00) 5.1 (00:00) 8.2 10.83 (05:50) 3.61 (16:10) 10.2 0 3.6 6.6 0
09-02-2019 14.1 (16:00) 5.4 (00:00) 9.8 13.61 (18:10) 3.33 (23:59) 0 0 0 0 0
08-02-2019 14.8 (16:20) 3.3 (00:00) 9.1 6.11 (22:00) 2.5 (18:20) 0 0 0 0 0
07-02-2019 8.7 (10:50) 3.9 (00:00) 6.3 5.83 (12:30) 2.5 (14:10) 1 0 0.2 0.8 0
06-02-2019 16.5 (15:10) 5.5 (00:00) 11 6.39 (23:00) 2.78 (23:00) 0 0 0 0 0
05-02-2019 12 (14:00) 4.7 (00:00) 8.3 6.11 (13:20) 2.22 (02:40) 1 1 0 0 0
04-02-2019 7.8 (15:40) -0.5 (-00:0) 3.7 4.17 (08:00) 2.78 (07:30) 0.8 0.2 0 0 0.6
03-02-2019 3.6 (12:10) 0.8 (00:00) 2.2 10.83 (00:30) 3.33 (00:30) 16.1 1.8 4.8 8.4 1.1
02-02-2019 4.7 (14:30) 1.1 (00:00) 2.9 12.78 (18:30) 5.28 (09:00) 35.2 13 11.2 6.8 4.2
01-02-2019 9.1 (13:00) 2.3 (00:00) 5.7 10 (11:10) 3.89 (08:50) 10.4 3.6 0 5.2 1.6
31-01-2019 13.3 (15:40) 4.9 (00:00) 9.1 9.17 (18:10) 3.89 (18:10) 53.2 11.4 11.4 0.4 30
30-01-2019 7.8 (15:50) 2.4 (00:00) 5.1 9.17 (01:50) 3.61 (00:30) 20.4 8.8 6 0 5.6
29-01-2019 6.6 (15:10) 2.9 (00:00) 4.8 18.89 (16:50) 5.83 (20:10) 20 5 1.6 9.4 4
28-01-2019 6.8 (16:20) 3.8 (00:00) 5.3 15.56 (08:00) 4.72 (07:50) 35.6 7.4 14.6 7.4 6.2
27-01-2019 6.2 (04:20) 4.1 (00:00) 5.1 16.67 (11:50) 5.56 (13:00) 21.6 3 5.8 3.2 9.6
26-01-2019 11.3 (14:50) 4.1 (00:00) 7.7 4.44 (01:50) 1.94 (21:00) 2.1 1.9 0.2 0 0
25-01-2019 8.3 (15:00) 5.7 (00:00) 7 8.89 (04:10) 3.61 (15:50) 21.8 4 7.2 6.4 4.2
24-01-2019 5.7 (23:59) 3.3 (00:00) 4.5 11.11 (02:30) 4.17 (00:30) 41 17.4 12.4 6.2 5
23-01-2019 7.7 (07:20) 3.9 (00:00) 5.8 22.5 (07:40) 5.83 (07:00) 75.6 28.4 17 13.8 16.4
22-01-2019 4 (13:20) 1.4 (00:00) 2.7 9.72 (16:10) 4.17 (16:10) 29 0 4 13.6 11.4
21-01-2019 5.6 (15:40) 1.3 (00:00) 3.4 6.39 (07:00) 3.06 (09:00) 8.6 7.6 0.2 0.8 0
20-01-2019 6.7 (13:00) 4.5 (00:00) 5.6 8.33 (07:40) 3.61 (11:00) 18.2 0.8 4 7 6.4
19-01-2019 8.6 (14:20) 1.9 (00:00) 5.3 7.5 (15:50) 3.06 (18:50) 2 1 0 0 1

Gráficas

Temp. máximas Temp. mínimas Temp. medias Precipitaciones Rachas de viento máximas Velocidades máximas media en intervalos de 10 minutos

Datos horarios

Fecha y hora oficial Temperatura (ºC) Velocidad del viento (km/h) Dirección del viento Racha (km/h) Dirección de racha Precipitación (mm) Presión (hPa) Tendencia (hPa) Humedad (%)
2019-02-17 23:00:00 12.8 12 Sudeste 31 Sudeste 0 -- -- 34
2019-02-17 22:00:00 12.7 13 Sudeste 28 Sur 0 -- -- 31
2019-02-17 21:00:00 10.7 5 Sur 12 Oeste 0 -- -- 37
2019-02-17 20:00:00 10 4 Sudeste 12 Sur 0 -- -- 38
2019-02-17 19:00:00 10.7 3 Sur 9 Sudoeste 0 -- -- 38
2019-02-17 18:00:00 12.5 4 Sudoeste 12 Sur 0 -- -- 34
2019-02-17 17:00:00 14.8 4 Sur 14 Sudeste 0 -- -- 29
2019-02-17 16:00:00 18.2 8 Sudeste 25 Sudeste 0 -- -- 20
2019-02-17 15:00:00 17.3 13 Sudeste 37 Sudeste 0 -- -- 18
2019-02-17 14:00:00 16.7 19 Sudeste 41 Sudeste 0 -- -- 18
2019-02-17 13:00:00 16.8 8 Este 28 Sudeste 0 -- -- 20
2019-02-17 12:00:00 15.7 10 Sudeste 29 Sudeste 0 -- -- 18
2019-02-17 11:00:00 14.4 8 Sudeste 22 Sudeste 0 -- -- 20
2019-02-17 10:00:00 11.5 10 Sudeste 27 Este 0 -- -- 24
2019-02-17 09:00:00 9.1 7 Sudeste 17 Este 0 -- -- 34
2019-02-17 08:00:00 7.9 6 Sur 18 Sudeste 0 -- -- 37
2019-02-17 07:00:00 7.5 5 Sur 14 Sudeste 0 -- -- 39
2019-02-17 06:00:00 8.1 5 Sudoeste 13 Sur 0 -- -- 38
2019-02-17 05:00:00 9.3 4 Sur 15 Sudeste 0 -- -- 34
2019-02-17 04:00:00 10.8 6 Sudeste 24 Sur 0 -- -- 33
2019-02-17 03:00:00 11.1 8 Sudeste 24 Sudeste 0 -- -- 33
2019-02-17 02:00:00 11.7 10 Sudeste 30 Sur 0 -- -- 31
2019-02-17 01:00:00 11 11 Sudeste 23 Sudeste 0 -- -- 35
2019-02-17 00:00:00 11.7 10 Sudeste 19 Sur 0 -- -- 35
2019-02-16 23:00:00 11.7 6 Sudeste 28 Sudeste 0 -- -- 36
2019-02-16 22:00:00 12.3 9 Sudeste 28 Sudeste 0 -- -- 35
2019-02-16 21:00:00 9.6 7 Sudeste 19 Este 0 -- -- 45
2019-02-16 20:00:00 9.8 4 Sudoeste 13 Sudeste 0 -- -- 52
2019-02-16 19:00:00 11 4 Sur 21 Este 0 -- -- 50
2019-02-16 18:00:00 11.8 6 Sur 14 Sudeste 0 -- -- 51
2019-02-16 17:00:00 14.9 5 Sudeste 14 Este 0 -- -- 38
2019-02-16 16:00:00 17.1 7 Sudeste 34 Sudeste 0 -- -- 34
2019-02-16 15:00:00 16.9 13 Sudeste 32 Sudeste 0 -- -- 35
2019-02-16 14:00:00 16.6 14 Sudeste 32 Sur 0 -- -- 39
2019-02-16 13:00:00 16.1 13 Sudeste 31 Sudeste 0 -- -- 41
2019-02-16 12:00:00 14.8 7 Sudeste 22 Sudeste 0 -- -- 48
2019-02-16 11:00:00 12.6 8 Sudeste 19 Sur 0 -- -- 52
2019-02-16 10:00:00 9 7 Sudeste 14 Sudeste 0 -- -- 62
2019-02-16 09:00:00 6.8 4 Sur 8 Sudeste 0 -- -- 69
2019-02-16 08:00:00 6.4 5 Sur 8 Sudeste 0 -- -- 68
2019-02-16 07:00:00 6.3 5 Sur 10 Sudeste 0 -- -- 68
2019-02-16 06:00:00 6.4 5 Sur 8 Sur 0 -- -- 67
2019-02-16 05:00:00 6.6 4 Sur 9 Sur 0 -- -- 66
2019-02-16 04:00:00 6.8 4 Sur 9 Sudeste 0 -- -- 64
2019-02-16 03:00:00 7.4 5 Sur 8 Sudeste 0 -- -- 60
2019-02-16 02:00:00 7.9 5 Sur 8 Sur 0 -- -- 58
2019-02-16 01:00:00 8 5 Sur 7 Sudeste 0 -- -- 56
2019-02-16 00:00:00 7.8 4 Sudoeste 9 Sudeste 0 -- -- 58
2019-02-15 23:00:00 8.6 4 Sur 12 Sudeste 0 -- -- 50
2019-02-15 22:00:00 9 5 Sur 11 Sudeste 0 -- -- 50
2019-02-15 21:00:00 9.3 5 Sur 10 Sudeste 0 -- -- 48
2019-02-15 20:00:00 9.8 6 Sur 11 Sur 0 -- -- 47
2019-02-15 19:00:00 11.4 4 Sur 8 Sudoeste 0 -- -- 45
2019-02-15 18:00:00 12.5 2 Sudoeste 9 Sudeste 0 -- -- 49
2019-02-15 17:00:00 16.2 5 Sur 12 Sur 0 -- -- 39
2019-02-15 16:00:00 17.7 4 Sudoeste 16 Sur 0 -- -- 36
2019-02-15 15:00:00 17.5 5 Sudeste 20 Sudeste 0 -- -- 40
2019-02-15 14:00:00 16.4 13 Sudeste 24 Sudeste 0 -- -- 41
2019-02-15 13:00:00 15.4 12 Sudeste 25 Sudeste 0 -- -- 43
2019-02-15 12:00:00 14.3 8 Sudeste 18 Sudeste 0 -- -- 45
2019-02-15 11:00:00 12.2 8 Sudeste 17 Sudeste 0 -- -- 50
2019-02-15 10:00:00 9.7 10 Sudeste 19 Sudeste 0 -- -- 52
2019-02-15 09:00:00 7.6 9 Sudeste 19 Sur 0 -- -- 56
2019-02-15 08:00:00 7.4 8 Sudeste 18 Sudeste 0 -- -- 59
2019-02-15 07:00:00 8 7 Sur 22 Sudeste 0 -- -- 57
2019-02-15 06:00:00 8.4 9 Sudeste 18 Sudeste 0 -- -- 55
2019-02-15 05:00:00 7.6 6 Sudoeste 19 Sur 0 -- -- 59
2019-02-15 04:00:00 8.7 6 Sur 17 Sudeste 0 -- -- 56
2019-02-15 03:00:00 8.8 6 Sur 16 Sur 0 -- -- 55
2019-02-15 02:00:00 8.6 5 Sur 18 Sudeste 0 -- -- 55
2019-02-15 01:00:00 9.3 7 Sur 21 Sudeste 0 -- -- 50
2019-02-15 00:00:00 9.1 9 Sudeste 18 Sur 0 -- -- 50
2019-02-14 23:00:00 9.8 8 Sudeste 17 Sudeste 0 -- -- 45
2019-02-14 22:00:00 9.3 6 Sur 17 Sudoeste 0 -- -- 45
2019-02-14 21:00:00 9.5 6 Sur 18 Sur 0 -- -- 45
2019-02-14 20:00:00 10.7 8 Sudeste 19 Sudeste 0 -- -- 42
2019-02-14 19:00:00 10.8 5 Sudeste 16 Sur 0 -- -- 47
2019-02-14 18:00:00 13.4 6 Sudeste 24 Sudeste 0 -- -- 39
2019-02-14 17:00:00 15.7 10 Sudeste 30 Sudeste 0 -- -- 28
2019-02-14 16:00:00 16.6 15 Sudeste 27 Sudeste 0 -- -- 26
2019-02-14 15:00:00 16.7 10 Sudeste 30 Sudeste 0 -- -- 31
2019-02-14 14:00:00 16 13 Sudeste 27 Sudeste 0 -- -- 32
2019-02-14 13:00:00 15.3 10 Sudeste 27 Sudeste 0 -- -- 36
2019-02-14 12:00:00 14.1 10 Sudeste 25 Sudeste 0 -- -- 43
2019-02-14 11:00:00 12.4 7 Sudeste 17 Sudeste 0 -- -- 49
2019-02-14 10:00:00 9.2 6 Sudeste 16 Sudeste 0 -- -- 58
2019-02-14 09:00:00 7.1 5 Sur 15 Sudeste 0 -- -- 70
2019-02-14 08:00:00 8 7 Sur 17 Sur 0 -- -- 65
2019-02-14 07:00:00 8 8 Sudeste 22 Sudeste 0 -- -- 65
2019-02-14 06:00:00 6.9 4 Sur 16 Sur 0 -- -- 72
2019-02-14 05:00:00 7.3 7 Sudeste 14 Sudeste 0 -- -- 68
2019-02-14 04:00:00 7.8 8 Sur 14 Sudeste 0 -- -- 67
2019-02-14 03:00:00 7 5 Sur 12 Sudeste 0 -- -- 75
2019-02-14 02:00:00 7.5 7 Sudeste 14 Sur 0 -- -- 71
2019-02-14 01:00:00 8 6 Sur 14 Sur 0 -- -- 71
2019-02-14 00:00:00 7.7 6 Sur 12 Sudeste 0 -- -- 70
2019-02-13 23:00:00 7.2 4 Sudoeste 8 Sudoeste 0 -- -- 73
2019-02-13 22:00:00 7.9 4 Sur 10 Sudeste 0 -- -- 68
2019-02-13 21:00:00 8.2 4 Sur 12 Sudeste 0 -- -- 69
2019-02-13 20:00:00 9.4 5 Sur 11 Sudeste 0 -- -- 64
2019-02-13 19:00:00 10.5 5 Sudoeste 11 Sudoeste 0 -- -- 60
2019-02-13 18:00:00 10.7 5 Sur 8 Sur 0 -- -- 60
2019-02-13 17:00:00 12.4 2 Sur 12 Sur 0 -- -- 59
2019-02-13 16:00:00 15.2 4 Sudeste 17 Sudeste 0 -- -- 52
2019-02-13 15:00:00 15.3 7 Sudeste 19 Sudeste 0 -- -- 47
2019-02-13 14:00:00 13.8 6 Sudeste 13 Este 0 -- -- 53
2019-02-13 13:00:00 11.7 6 Sudeste 12 Sudeste -- -- -- 66
2019-02-13 12:00:00 9.4 4 Sudeste 12 Sudeste 0 -- -- 71
2019-02-13 11:00:00 6.9 4 Sur 11 Sudeste 0 -- -- 86
2019-02-13 10:00:00 3.9 8 Sudeste 14 Sudeste 0 -- -- 94
2019-02-13 09:00:00 2.9 8 Sur 12 Sudeste 0 -- -- 99
2019-02-13 08:00:00 2.3 6 Sur 15 Sudeste 0 -- -- 100
2019-02-13 07:00:00 2.4 6 Sur 12 Sur 0 -- -- 100
2019-02-13 06:00:00 3.1 7 Sur 13 Sudeste 0 -- -- 100
2019-02-13 05:00:00 3.3 8 Sur 12 Sudeste 0 -- -- 100
2019-02-13 04:00:00 3.6 8 Sur 14 Sur 0 -- -- 100
2019-02-13 03:00:00 3.5 6 Sur 11 Sudeste 0 -- -- 100
2019-02-13 02:00:00 3.7 5 Sur 9 Sudeste 0 -- -- 100
2019-02-13 01:00:00 3.9 4 Sur 9 Sur 0 -- -- 100
2019-02-13 00:00:00 3.9 4 Sur 7 Sudeste 0 -- -- 100
2019-02-12 23:00:00 4.2 4 Sudoeste 8 Sudeste 0 -- -- 100
2019-02-12 22:00:00 4.5 6 Sudeste 8 Sudeste 0 -- -- 100
2019-02-12 21:00:00 4.2 2 Sur 4 Sudoeste 0 -- -- 100
2019-02-12 20:00:00 4.3 3 Oeste 6 Oeste 0 -- -- 100
2019-02-12 19:00:00 4.9 4 Oeste 6 Oeste 0 -- -- 97
2019-02-12 18:00:00 6.2 4 Oeste 7 Oeste 0 -- -- 92
2019-02-12 17:00:00 7.9 3 Sudoeste 8 Sudoeste 0 -- -- 84
2019-02-12 16:00:00 10.4 0 Calma 10 Nordeste 0 -- -- 76
2019-02-12 15:00:00 11 3 Nordeste 8 Norte 0 -- -- 68
2019-02-12 14:00:00 9.9 3 Sur 12 Sur 0 -- -- 69
2019-02-12 13:00:00 8.7 5 Sudeste 12 Sudeste 0 -- -- 72
2019-02-12 12:00:00 6.8 5 Sudeste 10 Sudeste 0 -- -- 100
2019-02-12 11:00:00 5.3 3 Este 7 Este 0 -- -- 100
2019-02-12 10:00:00 3.3 5 Sudeste 12 Sudeste 0 -- -- 100
2019-02-12 09:00:00 2.8 5 Sudeste 9 Este 0 -- -- 100
2019-02-12 08:00:00 2.8 5 Sur 12 Sudeste 0.2 -- -- 100
2019-02-12 07:00:00 2 5 Sudeste 10 Sur 0 -- -- 100
2019-02-12 06:00:00 1.6 3 Oeste 8 Sudeste 0 -- -- 100
2019-02-12 05:00:00 2.4 4 Sur 9 Sudeste 0 -- -- 100
2019-02-12 04:00:00 2.7 3 Oeste 5 Oeste 0 -- -- 100
2019-02-12 03:00:00 3.7 2 Sudoeste 5 Sudeste 0 -- -- 100
2019-02-12 02:00:00 4.7 2 Sur 6 Este 0.4 -- -- 100
2019-02-12 01:00:00 4.2 0 Calma 6 Oeste 0 -- -- 100
2019-02-12 00:00:00 4.6 0 Calma 10 Oeste 0 -- -- 100
2019-02-11 23:00:00 4.5 3 Noroeste 9 Oeste 0 -- -- 100
2019-02-11 22:00:00 4.7 3 Oeste 6 Oeste 0 -- -- 100
2019-02-11 21:00:00 5.1 4 Noroeste 10 Oeste 0 -- -- 100
2019-02-11 20:00:00 4.9 2 Oeste 7 Oeste 0 -- -- 100
2019-02-11 19:00:00 4.6 2 Oeste 10 Noroeste 0 -- -- 100
2019-02-11 18:00:00 5.7 4 Oeste 13 Norte 0 -- -- 100
2019-02-11 17:00:00 6 3 Norte 12 Norte 0.2 -- -- 100
2019-02-11 16:00:00 6.1 6 Noroeste 16 Norte 0.6 -- -- 100
2019-02-11 15:00:00 6.2 5 Noroeste 14 Oeste 0.4 -- -- 100
2019-02-11 14:00:00 6 6 Oeste 21 Noroeste 1.8 -- -- 100
2019-02-11 13:00:00 5.8 7 Noroeste 19 Noroeste 0.2 -- -- 100
2019-02-11 12:00:00 5.5 9 Noroeste 24 Oeste 0.4 -- -- 100
2019-02-11 11:00:00 5.3 9 Noroeste 24 Noroeste 0 -- -- 100
2019-02-11 10:00:00 5.1 10 Noroeste 23 Oeste 0.4 -- -- 100
2019-02-11 09:00:00 4.9 9 Noroeste 22 Noroeste 0 -- -- 100
2019-02-11 08:00:00 4.8 12 Noroeste 23 Sudoeste 0.4 -- -- 100
2019-02-11 07:00:00 4.9 7 Noroeste 22 Noroeste 0 -- -- 100
2019-02-11 06:00:00 4.7 9 Noroeste 24 Oeste 0 -- -- 100
2019-02-11 05:00:00 4.8 9 Noroeste 18 Noroeste 0 -- -- 100
2019-02-11 04:00:00 5 9 Noroeste 26 Noroeste 0.2 -- -- 98
2019-02-11 03:00:00 5.6 10 Noroeste 24 Oeste 0 -- -- 95
2019-02-11 02:00:00 5.7 8 Noroeste 21 Oeste 0 -- -- 94
2019-02-11 01:00:00 5.4 5 Noroeste 18 Noroeste 0 -- -- 94
2019-02-11 00:00:00 5.1 5 Noroeste 14 Oeste 0 -- -- 98
2019-02-10 23:00:00 5.6 8 Noroeste 21 Oeste 0 -- -- 97
2019-02-10 22:00:00 5.6 6 Norte 22 Noroeste 0 -- -- 98
2019-02-10 21:00:00 6.1 10 Noroeste 25 Oeste 0 -- -- 94
2019-02-10 20:00:00 5.9 7 Noroeste 21 Oeste 0 -- -- 99
2019-02-10 19:00:00 5.9 8 Noroeste 24 Noroeste 0 -- -- 100
2019-02-10 18:00:00 6.1 6 Noroeste 26 Oeste 0.2 -- -- 100
2019-02-10 17:00:00 6.3 9 Noroeste 28 Noroeste 0.8 -- -- 100
2019-02-10 16:00:00 6.5 10 Noroeste 29 Noroeste 1.4 -- -- 100
2019-02-10 15:00:00 7.7 7 Norte 30 Noroeste 0.6 -- -- 100
2019-02-10 14:00:00 7.3 10 Norte 29 Noroeste 1.6 -- -- 100
2019-02-10 13:00:00 7.4 8 Noroeste 23 Noroeste 2 -- -- 100
2019-02-10 12:00:00 7.2 8 Noroeste 26 Noroeste 2.4 -- -- 99
2019-02-10 11:00:00 9.6 8 Noroeste 28 Norte 0.8 -- -- 91
2019-02-10 10:00:00 10.5 10 Noroeste 39 Este 0 -- -- 76
2019-02-10 09:00:00 10.4 12 Este 36 Nordeste 0 -- -- 74
2019-02-10 08:00:00 9.4 9 Noroeste 37 Sudeste 0.4 -- -- 82
2019-02-10 07:00:00 9.7 9 Este 26 Este 0 -- -- 77
2019-02-10 06:00:00 10.4 9 Sur 39 Sudoeste 0 -- -- 67
2019-02-10 05:00:00 9.9 8 Oeste 33 Sur 0 -- -- 68
2019-02-10 04:00:00 9.9 10 Sur 33 Sur 0 -- -- 66
2019-02-10 03:00:00 10 7 Sudeste 25 Sudeste 0 -- -- 63
2019-02-10 02:00:00 10.5 9 Sur 24 Sur 0 -- -- 61
2019-02-10 01:00:00 10.8 6 Sur 31 Sudeste 0 -- -- 61
2019-02-10 00:00:00 11.3 12 Sudeste 30 Sudeste 0 -- -- 59
2019-02-09 23:00:00 11.5 6 Sur 24 Noroeste 0 -- -- 61
2019-02-09 22:00:00 11.4 4 Este 24 Sudeste 0 -- -- 61
2019-02-09 21:00:00 12 6 Sur 31 Sudeste 0 -- -- 58
2019-02-09 20:00:00 11.8 4 Este 24 Nordeste 0 -- -- 58
2019-02-09 19:00:00 12.2 5 Noroeste 49 Sudeste 0 -- -- 55
2019-02-09 18:00:00 11.9 8 Norte 21 Este 0 -- -- 56
2019-02-09 17:00:00 12.7 6 Norte 30 Noroeste 0 -- -- 56
2019-02-09 16:00:00 14.1 5 Nordeste 26 Sudeste 0 -- -- 53
2019-02-09 15:00:00 13.8 7 Sudeste 19 Sudeste 0 -- -- 56
2019-02-09 14:00:00 13.3 5 Este 20 Este 0 -- -- 59
2019-02-09 13:00:00 12.6 6 Sudeste 23 Sudeste 0 -- -- 64
2019-02-09 12:00:00 11.5 6 Sudeste 25 Oeste 0 -- -- 66
2019-02-09 11:00:00 10.1 8 Oeste 21 Oeste 0 -- -- 73
2019-02-09 10:00:00 7 2 Este 8 Este 0 -- -- 88
2019-02-09 09:00:00 5.7 3 Sudoeste 9 Sur 0 -- -- 91
2019-02-09 08:00:00 5.5 4 Sur 10 Sudeste 0 -- -- 89
2019-02-09 07:00:00 6 3 Sur 10 Sudeste 0 -- -- 86
2019-02-09 06:00:00 6.1 4 Sur 10 Este 0 -- -- 85
2019-02-09 05:00:00 6.6 3 Sudeste 9 Sudoeste 0 -- -- 85
2019-02-09 04:00:00 7 3 Sudoeste 8 Sur 0 -- -- 85
2019-02-09 03:00:00 7.7 3 Sur 10 Sudeste 0 -- -- 80
2019-02-09 02:00:00 7.2 3 Sur 9 Este 0 -- -- 81
2019-02-09 01:00:00 8.2 3 Sur 13 Oeste 0 -- -- 75
2019-02-09 00:00:00 9.3 5 Oeste 17 Sudoeste 0 -- -- 68
2019-02-08 23:00:00 9 4 Noroeste 20 Noroeste 0 -- -- 70
2019-02-08 22:00:00 9.8 5 Noroeste 22 Norte 0 -- -- 65
2019-02-08 21:00:00 8.4 3 Sudoeste 11 Nordeste 0 -- -- 70
2019-02-08 20:00:00 8.1 3 Oeste 13 Noroeste 0 -- -- 75
2019-02-08 19:00:00 8.3 3 Sudoeste 20 Noroeste 0 -- -- 85
2019-02-08 18:00:00 10.6 4 Oeste 12 Sudoeste 0 -- -- 69
2019-02-08 17:00:00 13.4 4 Sur 13 Sudeste 0 -- -- 57
2019-02-08 16:00:00 14.6 4 Este 21 Noroeste 0 -- -- 56
2019-02-08 15:00:00 14.5 5 Norte 19 Sudeste 0 -- -- 56
2019-02-08 14:00:00 13.6 6 Sudeste 20 Sudeste 0 -- -- 59
2019-02-08 13:00:00 12.8 4 Sudoeste 18 Sur 0 -- -- 60
2019-02-08 12:00:00 11.7 5 Noroeste 20 Oeste 0 -- -- 61
2019-02-08 11:00:00 10.5 5 Oeste 18 Oeste 0 -- -- 67
2019-02-08 10:00:00 8.6 6 Oeste 22 Sudoeste 0 -- -- 72
2019-02-08 09:00:00 7.2 5 Oeste 14 Sudoeste 0 -- -- 80
2019-02-08 08:00:00 7 5 Sur 14 Sudeste 0 -- -- 81
2019-02-08 07:00:00 5.9 4 Sudoeste 13 Sur 0 -- -- 89
2019-02-08 06:00:00 4.4 6 Sudeste 13 Sudeste 0 -- -- 95
2019-02-08 05:00:00 3.6 5 Sudoeste 12 Sudeste 0 -- -- 97
2019-02-08 04:00:00 3.3 4 Sur 13 Sudeste 0 -- -- 98
2019-02-08 03:00:00 3.9 5 Sur 13 Sur 0 -- -- 96
2019-02-08 02:00:00 3.8 7 Sur 12 Sudeste 0 -- -- 100
2019-02-08 01:00:00 4 7 Sur 11 Sur 0 -- -- 100
2019-02-08 00:00:00 4 4 Sur 8 Sudeste 0 -- -- 98
2019-02-07 23:00:00 4.1 5 Sur 7 Sur 0 -- -- 97
2019-02-07 22:00:00 4.3 4 Sur 6 Sur 0 -- -- 97
2019-02-07 21:00:00 4.4 4 Sudoeste 6 Sudoeste 0 -- -- 96
2019-02-07 20:00:00 4.7 3 Sudoeste 6 Sudoeste 0 -- -- 94
2019-02-07 19:00:00 6.3 4 Sudoeste 5 Sudoeste 0 -- -- 92
2019-02-07 18:00:00 7.6 0 Calma 9 Oeste 0 -- -- 88
2019-02-07 17:00:00 7.8 5 Oeste 17 Noroeste 0 -- -- 87
2019-02-07 16:00:00 7.5 7 Noroeste 20 Oeste 0 -- -- 94
2019-02-07 15:00:00 7.4 6 Noroeste 20 Noroeste 0 -- -- 96
2019-02-07 14:00:00 7.9 6 Noroeste 19 Noroeste 0.2 -- -- 100
2019-02-07 13:00:00 7.4 6 Noroeste 21 Noroeste 0.6 -- -- 100
2019-02-07 12:00:00 8.4 9 Noroeste 19 Noroeste 0.2 -- -- 95
2019-02-07 11:00:00 8.7 6 Noroeste 18 Oeste 0 -- -- 89
2019-02-07 10:00:00 8.3 8 Noroeste 19 Oeste 0 -- -- 91
2019-02-07 09:00:00 7.7 6 Noroeste 12 Noroeste 0 -- -- 96
2019-02-07 08:00:00 6.7 0 Calma 8 Sudeste 0 -- -- 98
2019-02-07 07:00:00 6.8 4 Sur 9 Sudeste 0 -- -- 98
2019-02-07 06:00:00 6.3 4 Sur 8 Sudeste 0 -- -- 97
2019-02-07 05:00:00 6.5 4 Sur 8 Sur 0 -- -- 99
2019-02-07 04:00:00 6.3 4 Sur 9 Sudeste 0 -- -- 99
2019-02-07 03:00:00 7 4 Sudeste 9 Sudeste 0 -- -- 98
2019-02-07 02:00:00 7.2 4 Noroeste 14 Oeste 0 -- -- 98
2019-02-07 01:00:00 6.7 6 Noroeste 12 Norte 0 -- -- 99
2019-02-07 00:00:00 7.1 5 Noroeste 16 Oeste 0 -- -- 97
2019-02-06 23:00:00 8.3 10 Oeste 23 Oeste 0 -- -- 94
2019-02-06 22:00:00 8.6 3 Sudoeste 8 Sudoeste 0 -- -- 84
2019-02-06 21:00:00 9.2 4 Sudoeste 8 Sudoeste 0 -- -- 81
2019-02-06 20:00:00 9.1 4 Sudoeste 8 Sudoeste 0 -- -- 83
2019-02-06 19:00:00 9.5 4 Oeste 8 Sudoeste 0 -- -- 82
2019-02-06 18:00:00 11.3 3 Sudoeste 6 Oeste 0 -- -- 79
2019-02-06 17:00:00 13.7 0 Calma 5 Nordeste 0 -- -- 72
2019-02-06 16:00:00 14.7 3 Oeste 13 Noroeste 0 -- -- 65
2019-02-06 15:00:00 16.2 4 Sur 22 Sudeste 0 -- -- 52
2019-02-06 14:00:00 13.9 5 Sudeste 12 Sudeste 0 -- -- 69
2019-02-06 13:00:00 11.8 6 Sudeste 13 Sur 0 -- -- 84
2019-02-06 12:00:00 9.4 5 Sudeste 12 Sudeste 0 -- -- 94
2019-02-06 11:00:00 6.9 5 Sudeste 13 Sudeste 0 -- -- 100
2019-02-06 10:00:00 5.5 8 Sudeste 13 Sudeste 0 -- -- 100
2019-02-06 09:00:00 6.1 5 Sudeste 9 Sudeste 0 -- -- 100
2019-02-06 08:00:00 5.8 4 Sur 9 Sur 0 -- -- 100
2019-02-06 07:00:00 6.3 3 Sur 7 Sur 0 -- -- 100
2019-02-06 06:00:00 6.3 4 Sudeste 8 Sudeste 0 -- -- 100
2019-02-06 05:00:00 7 2 Sur 5 Sudeste 0 -- -- 100
2019-02-06 04:00:00 7.2 3 Sur 5 Sur 0 -- -- 100
2019-02-06 03:00:00 7.9 0 Calma 5 Sudeste 0 -- -- 100
2019-02-06 02:00:00 7.9 2 Sur 4 Sur 0 -- -- 100
2019-02-06 01:00:00 8.2 3 Sur 6 Sudeste 0 -- -- 100
2019-02-06 00:00:00 8.6 3 Sudeste 5 Sudeste 0 -- -- 100
2019-02-05 23:00:00 8.5 2 Sudeste 4 Sudeste 0 -- -- 100
2019-02-05 22:00:00 8.6 0 Calma 3 Sudoeste 0 -- -- 99
2019-02-05 21:00:00 8.9 0 Calma 5 Oeste 0 -- -- 98
2019-02-05 20:00:00 9.2 3 Oeste 4 Noroeste 0 -- -- 96
2019-02-05 19:00:00 9.8 2 Oeste 8 Oeste 0 -- -- 92
2019-02-05 18:00:00 10.7 3 Noroeste 13 Oeste 0 -- -- 88
2019-02-05 17:00:00 11.2 3 Noroeste 11 Oeste 0 -- -- 85
2019-02-05 16:00:00 11.7 3 Noroeste 14 Noroeste 0 -- -- 82
2019-02-05 15:00:00 11.9 6 Norte 16 Oeste 0 -- -- 80
2019-02-05 14:00:00 12 6 Noroeste 22 Noroeste 0 -- -- 82
2019-02-05 13:00:00 11.5 8 Noroeste 22 Noroeste 0 -- -- 82
2019-02-05 12:00:00 10.5 6 Noroeste 14 Norte 0 -- -- 88
2019-02-05 11:00:00 7.8 3 Sur 10 Sudeste 0 -- -- 100
2019-02-05 10:00:00 6.8 5 Sudeste 9 Sudeste 0 -- -- 100
2019-02-05 09:00:00 5.9 5 Sur 10 Sudeste 0 -- -- 100
2019-02-05 08:00:00 5.9 5 Sur 11 Sur 0 -- -- 100
2019-02-05 07:00:00 5.9 0 Calma 6 Sur 0 -- -- 100
2019-02-05 06:00:00 6 2 Sudeste 7 Sur 0 -- -- 100
2019-02-05 05:00:00 5.3 3 Sur 10 Sudeste 0 -- -- 100
2019-02-05 04:00:00 4.9 4 Sur 10 Sur 0 -- -- 100
2019-02-05 03:00:00 4.8 3 Sudeste 12 Sudeste 0.2 -- -- 100
2019-02-05 02:00:00 4.8 4 Sudeste 9 Sudeste 0.4 -- -- 100
2019-02-05 01:00:00 4.8 3 Sudeste 8 Sudeste 0.4 -- -- 100
2019-02-05 00:00:00 4.9 2 Sudeste 6 Sudeste 0.4 -- -- 100
2019-02-04 23:00:00 5 2 Sur 7 Sudeste 0.4 -- -- 98
2019-02-04 22:00:00 5.4 3 Sudeste 7 Sudeste 0 -- -- 98
2019-02-04 21:00:00 5.4 0 Calma 8 Sudeste 0 -- -- 94
2019-02-04 20:00:00 5.4 3 Sudeste 7 Sudeste 0 -- -- 96
2019-02-04 19:00:00 5.4 2 Sur 5 Sur 0.2 -- -- 96
2019-02-04 18:00:00 6.2 2 Sudoeste 6 Sur 0 -- -- 91
2019-02-04 17:00:00 6.9 0 Calma 9 Sudeste 0 -- -- 90
2019-02-04 16:00:00 7.5 6 Sudeste 11 Sudeste 0 -- -- 81
2019-02-04 15:00:00 7.6 4 Sudeste 10 Sudeste 0 -- -- 81
2019-02-04 14:00:00 7.5 4 Sudeste 9 Sudeste 0 -- -- 86
2019-02-04 13:00:00 5.6 4 Sudeste 10 Sudoeste 0 -- -- 96
2019-02-04 12:00:00 2.7 6 Sudeste 12 Sudeste 0 -- -- 100
2019-02-04 11:00:00 1.5 6 Sudeste 13 Sudeste 0 -- -- 100
2019-02-04 10:00:00 0.2 4 Sur 11 Sudeste 0 -- -- 100
2019-02-04 09:00:00 -0.4 0 Calma 15 Sudeste 0 -- -- 100
2019-02-04 08:00:00 -0.3 9 Sudeste 15 Sudeste 0 -- -- 100
2019-02-04 07:00:00 0 7 Sudeste 14 Sudeste 0 -- -- 100
2019-02-04 06:00:00 0.3 9 Sudeste 15 Sudeste 0 -- -- 100
2019-02-04 05:00:00 0.5 3 Sudeste 10 Sudeste 0 -- -- 100
2019-02-04 04:00:00 0.6 0 Calma 9 Sudeste 0 -- -- 100
2019-02-04 03:00:00 0.5 4 Sudeste 8 Sudeste 0 -- -- 100
2019-02-04 02:00:00 0.8 0 Calma 5 Sur 0.2 -- -- 100
2019-02-04 01:00:00 0.8 2 Sur 5 Oeste 0 -- -- 100
2019-02-04 00:00:00 1.4 0 Calma 8 Sudeste 0 -- -- 100
2019-02-03 23:00:00 1.5 0 Calma 4 Oeste 0.2 -- -- 100
2019-02-03 22:00:00 1.9 3 Sudoeste 6 Sudoeste 0.4 -- -- 100
2019-02-03 21:00:00 1.5 0 Calma 4 Sudoeste 0.6 -- -- 100
2019-02-03 20:00:00 1.4 0 Calma 8 Noroeste 0 -- -- 100
2019-02-03 19:00:00 1 0 Calma 6 Oeste 0 -- -- 100
2019-02-03 18:00:00 1.8 2 Oeste 7 Sudoeste 0 -- -- 100
2019-02-03 17:00:00 3.1 2 Sudeste 6 Sudeste 1.2 -- -- 97
2019-02-03 16:00:00 2.7 3 Sur 20 Noroeste 1.6 -- -- 99
2019-02-03 15:00:00 3.2 9 Noroeste 21 Oeste 2.6 -- -- 100
2019-02-03 14:00:00 3.3 0 Calma 23 Oeste 1.2 -- -- 96
2019-02-03 13:00:00 2.5 9 Noroeste 26 Nordeste 1.8 -- -- 98
2019-02-03 12:00:00 3.1 6 Norte 32 Nordeste 1.6 -- -- 93
2019-02-03 11:00:00 2.4 4 Noroeste 25 Noroeste 1.6 -- -- 94
2019-02-03 10:00:00 1.7 7 Nordeste 19 Nordeste 0.8 -- -- 94
2019-02-03 09:00:00 1.3 6 Nordeste 21 Nordeste 0.4 -- -- 96
2019-02-03 08:00:00 0.8 6 Oeste 18 Oeste 0.2 -- -- 100
2019-02-03 07:00:00 1.3 4 Norte 22 Norte 0.2 -- -- 99
2019-02-03 06:00:00 1.1 5 Oeste 19 Oeste 0 -- -- 96
2019-02-03 05:00:00 1.8 6 Noroeste 21 Oeste 0.2 -- -- 88
2019-02-03 04:00:00 2.4 7 Norte 24 Oeste 0.2 -- -- 81
2019-02-03 03:00:00 1.7 4 Noroeste 24 Noroeste 0.6 -- -- 94
2019-02-03 02:00:00 1.4 4 Norte 24 Oeste 0.2 -- -- 97
2019-02-03 01:00:00 1.2 4 Norte 39 Norte 0.6 -- -- 96
2019-02-03 00:00:00 2 9 Norte 29 Oeste 0.8 -- -- 90
2019-02-02 23:00:00 1.6 10 Noroeste 27 Noroeste 0.4 -- -- 100
2019-02-02 22:00:00 1.3 9 Oeste 26 Oeste 0.4 -- -- 100
2019-02-02 21:00:00 1.5 13 Noroeste 42 Nordeste 1 -- -- 96
2019-02-02 20:00:00 2.1 7 Noroeste 34 Nordeste 0.8 -- -- 97
2019-02-02 19:00:00 2.6 14 Norte 46 Norte 0.8 -- -- 94
2019-02-02 18:00:00 3.1 9 Noroeste 36 Oeste 0.8 -- -- 90
2019-02-02 17:00:00 2.2 12 Noroeste 39 Noroeste 1.6 -- -- 99
2019-02-02 16:00:00 1.8 7 Noroeste 34 Oeste 1.2 -- -- 99
2019-02-02 15:00:00 3.5 10 Noroeste 45 Norte 0.2 -- -- 84
2019-02-02 14:00:00 4 6 Noroeste 35 Norte 1.8 -- -- 87
2019-02-02 13:00:00 2.8 9 Norte 35 Sudoeste 1.2 -- -- 90
2019-02-02 12:00:00 2.5 13 Noroeste 45 Norte 2.4 -- -- 93
2019-02-02 11:00:00 2.2 12 Norte 39 Norte 1.6 -- -- 100
2019-02-02 10:00:00 2.7 10 Norte 39 Nordeste 0.6 -- -- 98
2019-02-02 09:00:00 2.4 19 Noroeste 45 Noroeste 0.6 -- -- 100
2019-02-02 08:00:00 2.6 14 Noroeste 33 Noroeste 2 -- -- 100
2019-02-02 07:00:00 3 8 Noroeste 37 Noroeste 4 -- -- 100
2019-02-02 06:00:00 2.7 12 Noroeste 44 Noroeste 7.2 -- -- 100
2019-02-02 05:00:00 2.1 11 Noroeste 31 Noroeste 3.4 -- -- 100
2019-02-02 04:00:00 2.8 4 Norte 18 Oeste 0.8 -- -- 100
2019-02-02 03:00:00 3 5 Norte 20 Norte 1.4 -- -- 100
2019-02-02 02:00:00 3 6 Norte 18 Noroeste 0.2 -- -- 100
2019-02-02 01:00:00 2.6 4 Norte 13 Noroeste 0 -- -- 100
2019-02-02 00:00:00 2.5 0 Calma 14 Norte 0.6 -- -- 100
2019-02-01 23:00:00 3.1 7 Noroeste 18 Oeste 0.6 -- -- 100
2019-02-01 22:00:00 2.8 0 Calma 9 Sudeste 0 -- -- 100
2019-02-01 21:00:00 2.8 2 Sudoeste 9 Sudeste 0 -- -- 100
2019-02-01 20:00:00 2.4 3 Sudeste 12 Sudeste 0 -- -- 100
2019-02-01 19:00:00 2.9 5 Sudeste 13 Noroeste 0.4 -- -- 100
2019-02-01 18:00:00 3 3 Norte 32 Noroeste 2.4 -- -- 99
2019-02-01 17:00:00 6.5 3 Oeste 13 Este 0 -- -- 92
2019-02-01 16:00:00 5.2 4 Norte 17 Noroeste 1 -- -- 95
2019-02-01 15:00:00 7.2 6 Nordeste 21 Norte 1.6 -- -- 84
2019-02-01 14:00:00 8.2 8 Nordeste 26 Norte 0 -- -- 71
2019-02-01 13:00:00 9.1 11 Nordeste 32 Nordeste 0.2 -- -- 69
2019-02-01 12:00:00 8.2 12 Nordeste 36 Sudeste 0 -- -- 69
2019-02-01 11:00:00 8.5 10 Nordeste 29 Nordeste 0 -- -- 69
2019-02-01 10:00:00 7 12 Nordeste 28 Norte 0 -- -- 72
2019-02-01 09:00:00 6.8 12 Norte 33 Nordeste 0 -- -- 71
2019-02-01 08:00:00 6.3 12 Norte 26 Nordeste 0 -- -- 87
2019-02-01 07:00:00 5.1 8 Este 21 Este 0 -- -- 97
2019-02-01 06:00:00 5.1 4 Sudoeste 12 Este 0 -- -- 100
2019-02-01 05:00:00 6.6 4 Sur 10 Sudeste 0 -- -- 100
2019-02-01 04:00:00 6.7 3 Sudeste 7 Este 0 -- -- 100
2019-02-01 03:00:00 6.7 3 Sudeste 9 Sudeste 3.4 -- -- 100
2019-02-01 02:00:00 6.9 3 Sudeste 7 Este 0.2 -- -- 100
2019-02-01 01:00:00 6.9 0 Calma 5 Oeste 0 -- -- 100
2019-02-01 00:00:00 7.1 3 Oeste 9 Este 0.2 -- -- 100
2019-01-31 23:00:00 7.2 5 Este 16 Sudeste 2.4 -- -- 100
2019-01-31 22:00:00 7.2 4 Noroeste 19 Noroeste 2.6 -- -- 100
2019-01-31 21:00:00 7.4 7 Noroeste 21 Oeste 3.2 -- -- 100
2019-01-31 20:00:00 7.9 9 Norte 26 Norte 9.8 -- -- 100
2019-01-31 19:00:00 8.6 13 Noroeste 33 Norte 11.8 -- -- 99
2019-01-31 18:00:00 12.8 12 Norte 30 Nordeste 0 -- -- 84
2019-01-31 17:00:00 11.8 11 Nordeste 25 Nordeste 0.4 -- -- 93
2019-01-31 16:00:00 13.2 11 Nordeste 26 Nordeste 0 -- -- 83
2019-01-31 15:00:00 13 8 Nordeste 25 Nordeste 0 -- -- 84
2019-01-31 14:00:00 12.7 9 Norte 24 Norte 0 -- -- 85
2019-01-31 13:00:00 11.7 4 Norte 22 Nordeste 0 -- -- 94
2019-01-31 12:00:00 10.1 4 Sur 16 Sur 0 -- -- 100
2019-01-31 11:00:00 8.9 3 Sur 19 Sudeste 1 -- -- 100
2019-01-31 10:00:00 7.9 5 Sur 14 Sudeste 1 -- -- 100
2019-01-31 09:00:00 7.5 6 Sudeste 15 Sudoeste 3 -- -- 100
2019-01-31 08:00:00 7.6 3 Oeste 13 Sudeste 3 -- -- 100
2019-01-31 07:00:00 7.3 4 Sur 12 Sudeste 3.4 -- -- 100
2019-01-31 06:00:00 7.4 4 Este 17 Norte 2.2 -- -- 100
2019-01-31 05:00:00 7 6 Norte 19 Oeste 2.6 -- -- 100
2019-01-31 04:00:00 6.4 5 Norte 12 Oeste 1.6 -- -- 100
2019-01-31 03:00:00 6 4 Este 13 Sudeste 1.8 -- -- 100
2019-01-31 02:00:00 5.5 6 Sudeste 18 Sur 1.4 -- -- 100
2019-01-31 01:00:00 4.9 3 Sudeste 14 Sudeste 1.8 -- -- 100
2019-01-31 00:00:00 4.9 5 Este 16 Sudeste 1.6 -- -- 100
2019-01-30 23:00:00 4.9 4 Sudeste 20 Sudeste 2.4 -- -- 97
2019-01-30 22:00:00 5.2 5 Nordeste 16 Norte 1 -- -- 95
2019-01-30 21:00:00 5.5 5 Este 13 Norte 0.6 -- -- 91
2019-01-30 20:00:00 6.5 6 Norte 19 Noroeste 0 -- -- 81
2019-01-30 19:00:00 6.2 4 Sudoeste 13 Sur 0 -- -- 72
2019-01-30 18:00:00 5.7 3 Sur 10 Noroeste 0 -- -- 78
2019-01-30 17:00:00 7 3 Sudeste 9 Este 0 -- -- 81
2019-01-30 16:00:00 7.7 4 Este 10 Este 0 -- -- 69
2019-01-30 15:00:00 7.4 3 Norte 14 Noroeste 0 -- -- 75
2019-01-30 14:00:00 7.4 5 Norte 17 Oeste 0 -- -- 73
2019-01-30 13:00:00 6.3 5 Oeste 12 Oeste 0 -- -- 83
2019-01-30 12:00:00 4.4 3 Oeste 9 Oeste 0 -- -- 100
2019-01-30 11:00:00 3.1 3 Norte 18 Norte 0.8 -- -- 100
2019-01-30 10:00:00 2.9 4 Norte 10 Noroeste 0.6 -- -- 100
2019-01-30 09:00:00 2.5 5 Norte 22 Noroeste 2.6 -- -- 100
2019-01-30 08:00:00 2.7 3 Norte 12 Norte 1.2 -- -- 100
2019-01-30 07:00:00 2.5 3 Norte 17 Noroeste 0.8 -- -- 100
2019-01-30 06:00:00 2.4 5 Norte 26 Oeste 3.2 -- -- 100
2019-01-30 05:00:00 2.7 3 Norte 17 Nordeste 2.6 -- -- 100
2019-01-30 04:00:00 2.8 6 Noroeste 22 Noroeste 0.8 -- -- 100
2019-01-30 03:00:00 2.9 8 Noroeste 27 Oeste 0.8 -- -- 100
2019-01-30 02:00:00 3.1 12 Noroeste 33 Oeste 1.4 -- -- 100
2019-01-30 01:00:00 3.4 7 Noroeste 31 Noroeste 0 -- -- 100
2019-01-30 00:00:00 3.1 10 Noroeste 39 Oeste 0.2 -- -- 100
2019-01-29 23:00:00 3.3 14 Noroeste 42 Oeste 0.6 -- -- 100
2019-01-29 22:00:00 3.7 15 Noroeste 55 Noroeste 1.8 -- -- 99
2019-01-29 21:00:00 4.4 15 Noroeste 50 Noroeste 0.4 -- -- 100
2019-01-29 20:00:00 5 17 Norte 58 Noroeste 0.8 -- -- 99
2019-01-29 19:00:00 5.1 12 Noroeste 43 Oeste 0.2 -- -- 100
2019-01-29 18:00:00 5.5 18 Noroeste 55 Oeste 0.6 -- -- 99
2019-01-29 17:00:00 6.3 13 Norte 68 Norte 0.8 -- -- 99
2019-01-29 16:00:00 6.6 15 Norte 42 Oeste 3.2 -- -- 100
2019-01-29 15:00:00 6.5 3 Norte 23 Oeste 2 -- -- 100
2019-01-29 14:00:00 6.1 6 Sudeste 22 Noroeste 2 -- -- 96
2019-01-29 13:00:00 6.4 5 Este 17 Noroeste 0.8 -- -- 96
2019-01-29 12:00:00 6.1 6 Nordeste 22 Este 0 -- -- 92
2019-01-29 11:00:00 5 5 Sudeste 14 Noroeste 0.6 -- -- 98
2019-01-29 10:00:00 4.5 3 Sur 10 Sudeste 0.8 -- -- 100
2019-01-29 09:00:00 4.3 2 Sur 8 Sudeste 0.2 -- -- 100
2019-01-29 08:00:00 4.4 6 Sudeste 10 Sudeste 0 -- -- 100
2019-01-29 07:00:00 4.4 2 Oeste 5 Nordeste 0 -- -- 100
2019-01-29 06:00:00 4.5 3 Noroeste 6 Norte 0 -- -- 100
2019-01-29 05:00:00 4.7 3 Norte 12 Oeste 0.6 -- -- 100
2019-01-29 04:00:00 4.9 4 Norte 19 Oeste 0.2 -- -- 100
2019-01-29 03:00:00 5 5 Noroeste 23 Noroeste 1.4 -- -- 100
2019-01-29 02:00:00 4.9 11 Noroeste 28 Oeste 1.2 -- -- 100
2019-01-29 01:00:00 4.9 11 Noroeste 26 Noroeste 1.6 -- -- 100
2019-01-29 00:00:00 5 9 Noroeste 29 Noroeste 1.6 -- -- 100
2019-01-28 23:00:00 5.3 6 Noroeste 28 Oeste 0.4 -- -- 100
2019-01-28 22:00:00 5.4 9 Noroeste 30 Oeste 1.2 -- -- 100
2019-01-28 21:00:00 5.3 10 Noroeste 33 Noroeste 1 -- -- 100
2019-01-28 20:00:00 5.3 6 Noroeste 34 Oeste 0.2 -- -- 100
2019-01-28 19:00:00 5.1 14 Norte 41 Nordeste 1.8 -- -- 100
2019-01-28 18:00:00 5.8 11 Norte 36 Oeste 2.4 -- -- 100
2019-01-28 17:00:00 6.4 13 Noroeste 33 Sudoeste 0.2 -- -- 95
2019-01-28 16:00:00 6.5 13 Noroeste 41 Oeste 0 -- -- 95
2019-01-28 15:00:00 5.9 15 Noroeste 40 Norte 1.4 -- -- 100
2019-01-28 14:00:00 6.1 10 Noroeste 37 Noroeste 1.6 -- -- 100
2019-01-28 13:00:00 5.8 10 Noroeste 46 Noroeste 1.8 -- -- 100
2019-01-28 12:00:00 6 13 Norte 45 Oeste 1.4 -- -- 100
2019-01-28 11:00:00 6.3 12 Noroeste 40 Noroeste 1.8 -- -- 100
2019-01-28 10:00:00 6.2 12 Noroeste 41 Oeste 1.6 -- -- 100
2019-01-28 09:00:00 6.2 10 Noroeste 51 Oeste 5.6 -- -- 100
2019-01-28 08:00:00 6.5 16 Noroeste 56 Oeste 3.4 -- -- 100
2019-01-28 07:00:00 6.4 15 Noroeste 44 Norte 0.8 -- -- 100
2019-01-28 06:00:00 6.3 15 Noroeste 46 Oeste 0 -- -- 100
2019-01-28 05:00:00 5.2 12 Norte 29 Oeste 3 -- -- 100
2019-01-28 04:00:00 4.2 5 Norte 16 Norte 2 -- -- 100
2019-01-28 03:00:00 3.9 4 Norte 19 Norte 0.8 -- -- 100
2019-01-28 02:00:00 3.9 7 Norte 23 Noroeste 0.6 -- -- 100
2019-01-28 01:00:00 4 8 Norte 39 Noroeste 1 -- -- 100
2019-01-28 00:00:00 4.2 11 Norte 29 Noroeste 1.8 -- -- 100
2019-01-27 23:00:00 4.2 8 Noroeste 30 Noroeste 3.6 -- -- 100
2019-01-27 22:00:00 4.4 7 Noroeste 29 Noroeste 1.8 -- -- 100
2019-01-27 21:00:00 4.6 10 Noroeste 28 Noroeste 1.4 -- -- 100
2019-01-27 20:00:00 4.5 10 Oeste 35 Noroeste 0.6 -- -- 99
2019-01-27 19:00:00 4.8 11 Noroeste 28 Norte 0.4 -- -- 93
2019-01-27 18:00:00 5.3 9 Noroeste 30 Noroeste 0.2 -- -- 90
2019-01-27 17:00:00 5.2 10 Noroeste 36 Noroeste 0.2 -- -- 93
2019-01-27 16:00:00 4.8 9 Noroeste 45 Oeste 0 -- -- 96
2019-01-27 15:00:00 4.4 9 Noroeste 59 Norte 0.8 -- -- 98
2019-01-27 14:00:00 4.9 15 Norte 46 Nordeste 0.6 -- -- 100
2019-01-27 13:00:00 4.4 20 Noroeste 53 Oeste 1.4 -- -- 100
2019-01-27 12:00:00 4.6 12 Norte 60 Noroeste 2.4 -- -- 100
2019-01-27 11:00:00 5 8 Norte 26 Nordeste 0.6 -- -- 100
2019-01-27 10:00:00 4.2 9 Norte 46 Noroeste 1.6 -- -- 100
2019-01-27 09:00:00 4.8 7 Norte 22 Oeste 0.4 -- -- 100
2019-01-27 08:00:00 4.5 6 Norte 35 Norte 0.2 -- -- 100
2019-01-27 07:00:00 5.1 14 Norte 41 Noroeste 0.6 -- -- 100
2019-01-27 06:00:00 5.8 12 Noroeste 36 Oeste 0.8 -- -- 100
2019-01-27 05:00:00 6.1 9 Noroeste 36 Noroeste 2.2 -- -- 100
2019-01-27 04:00:00 5.8 7 Noroeste 18 Noroeste 0 -- -- 100
2019-01-27 03:00:00 4.4 4 Sur 12 Sudeste 0 -- -- 100
2019-01-27 02:00:00 4.5 6 Sudeste 12 Sudeste 0 -- -- 100
2019-01-27 01:00:00 4.9 0 Calma 8 Noroeste 0 -- -- 100
2019-01-27 00:00:00 5 3 Sur 8 Oeste 0 -- -- 100
2019-01-26 23:00:00 4.4 2 Norte 10 Oeste 0 -- -- 100
2019-01-26 22:00:00 4.3 3 Norte 11 Oeste 0 -- -- 100
2019-01-26 21:00:00 4.6 7 Oeste 13 Oeste 0 -- -- 100
2019-01-26 20:00:00 6.1 4 Norte 15 Oeste 0 -- -- 100
2019-01-26 19:00:00 6.8 6 Oeste 12 Oeste 0 -- -- 100
2019-01-26 18:00:00 7.7 5 Oeste 9 Oeste 0 -- -- 98
2019-01-26 17:00:00 9.1 4 Sudoeste 6 Noroeste 0 -- -- 94
2019-01-26 16:00:00 11.1 0 Calma 6 Oeste 0 -- -- 86
2019-01-26 15:00:00 11 3 Sur 9 Este 0 -- -- 85
2019-01-26 14:00:00 10.5 5 Sudeste 12 Este 0 -- -- 80
2019-01-26 13:00:00 9.3 3 Este 15 Este 0 -- -- 91
2019-01-26 12:00:00 8 4 Sudeste 9 Sudeste 0 -- -- 100
2019-01-26 11:00:00 7.2 4 Sudeste 8 Sudeste 0 -- -- 100
2019-01-26 10:00:00 6.5 4 Sudeste 8 Sudeste 0 -- -- 100
2019-01-26 09:00:00 6.1 2 Sur 3 Sur 0 -- -- 100
2019-01-26 08:00:00 6.2 0 Calma 12 Oeste 0 -- -- 100
2019-01-26 07:00:00 6.3 4 Noroeste 11 Oeste 0.2 -- -- 100
2019-01-26 06:00:00 6.5 5 Oeste 14 Noroeste 0.2 -- -- 100
2019-01-26 05:00:00 6.6 4 Noroeste 11 Oeste 0.2 -- -- 100
2019-01-26 04:00:00 6.8 5 Noroeste 14 Oeste 0 -- -- 100
2019-01-26 03:00:00 7 5 Noroeste 10 Oeste 0.6 -- -- 100
2019-01-26 02:00:00 7 3 Noroeste 16 Oeste 1 -- -- 100
2019-01-26 01:00:00 7 3 Oeste 12 Noroeste 0.2 -- -- 100
2019-01-26 00:00:00 7 4 Noroeste 22 Oeste 1 -- -- 100
2019-01-25 23:00:00 7.2 6 Noroeste 13 Oeste 1 -- -- 100
2019-01-25 22:00:00 7.2 4 Norte 15 Noroeste 0.4 -- -- 100
2019-01-25 21:00:00 7.3 8 Noroeste 20 Noroeste 0.6 -- -- 100
2019-01-25 20:00:00 7.3 10 Noroeste 23 Oeste 0.8 -- -- 100
2019-01-25 19:00:00 7.3 10 Noroeste 23 Noroeste 0.4 -- -- 100
2019-01-25 18:00:00 7.4 10 Noroeste 28 Noroeste 0.2 -- -- 100
2019-01-25 17:00:00 7.6 6 Norte 21 Oeste 0.2 -- -- 100
2019-01-25 16:00:00 7.7 10 Noroeste 31 Noroeste 0.8 -- -- 100
2019-01-25 15:00:00 8.3 6 Norte 27 Noroeste 0 -- -- 100
2019-01-25 14:00:00 8 10 Noroeste 28 Noroeste 1 -- -- 100
2019-01-25 13:00:00 7.8 10 Noroeste 24 Noroeste 4.2 -- -- 100
2019-01-25 12:00:00 7.8 7 Noroeste 29 Noroeste 3.6 -- -- 100
2019-01-25 11:00:00 7.5 6 Noroeste 26 Noroeste 1 -- -- 100
2019-01-25 10:00:00 7.3 9 Noroeste 24 Noroeste 1 -- -- 100
2019-01-25 09:00:00 7.2 9 Noroeste 22 Noroeste 0.6 -- -- 100
2019-01-25 08:00:00 7.4 7 Norte 21 Oeste 0.4 -- -- 100
2019-01-25 07:00:00 7.4 6 Norte 30 Noroeste 0.6 -- -- 100
2019-01-25 06:00:00 7.4 6 Norte 25 Norte 0.2 -- -- 100
2019-01-25 05:00:00 7.3 8 Norte 32 Nordeste 1 -- -- 100
2019-01-25 04:00:00 7.3 11 Norte 30 Oeste 1.4 -- -- 100
2019-01-25 03:00:00 7.2 12 Noroeste 28 Oeste 1 -- -- 100
2019-01-25 02:00:00 7 12 Noroeste 26 Oeste 0.2 -- -- 100
2019-01-25 01:00:00 6.4 8 Noroeste 20 Oeste 0.2 -- -- 100
2019-01-25 00:00:00 5.7 7 Noroeste 14 Noroeste 0.2 -- -- 100
2019-01-24 23:00:00 5.3 4 Noroeste 10 Oeste 0.6 -- -- 100
2019-01-24 22:00:00 4.4 2 Noroeste 5 Noroeste 2.2 -- -- 100
2019-01-24 21:00:00 4.3 3 Sur 7 Sudeste 0.8 -- -- 100
2019-01-24 20:00:00 4.2 0 Calma 4 Sudeste 0.6 -- -- 100
2019-01-24 19:00:00 4.2 0 Calma 4 Sudeste 0.6 -- -- 100
2019-01-24 18:00:00 4.2 0 Calma 5 Este 0.8 -- -- 100
2019-01-24 17:00:00 4.4 3 Sudeste 5 Noroeste 0.4 -- -- 100
2019-01-24 16:00:00 4.6 3 Noroeste 10 Noroeste 0.4 -- -- 100
2019-01-24 15:00:00 4.4 3 Noroeste 8 Noroeste 1.4 -- -- 100
2019-01-24 14:00:00 3.9 5 Oeste 11 Noroeste 1.8 -- -- 100
2019-01-24 13:00:00 3.8 0 Calma 5 Nordeste 1.4 -- -- 100
2019-01-24 12:00:00 3.4 3 Sudeste 10 Sudeste 1.6 -- -- 100
2019-01-24 11:00:00 3.7 4 Sudeste 10 Sudeste 2.4 -- -- 100
2019-01-24 10:00:00 4 3 Norte 15 Nordeste 2.2 -- -- 100
2019-01-24 09:00:00 4 4 Norte 26 Norte 2 -- -- 100
2019-01-24 08:00:00 4.1 8 Norte 19 Noroeste 2.8 -- -- 100
2019-01-24 07:00:00 4 8 Noroeste 26 Nordeste 1.4 -- -- 100
2019-01-24 06:00:00 4.1 8 Norte 28 Nordeste 2.2 -- -- 100
2019-01-24 05:00:00 4.1 9 Norte 26 Norte 2.6 -- -- 100
2019-01-24 04:00:00 4.1 6 Norte 28 Oeste 3 -- -- 100
2019-01-24 03:00:00 4 12 Norte 40 Norte 2.6 -- -- 100
2019-01-24 02:00:00 4.4 13 Norte 34 Nordeste 3.6 -- -- 100
2019-01-24 01:00:00 4.5 13 Norte 39 Nordeste 3.4 -- -- 100
2019-01-24 00:00:00 4.7 11 Norte 49 Norte 1.6 -- -- 100
2019-01-23 23:00:00 5 13 Norte 44 Norte 3.4 -- -- 100
2019-01-23 22:00:00 5.2 11 Norte 51 Nordeste 1 -- -- 100
2019-01-23 21:00:00 5.6 17 Norte 50 Nordeste 4.4 -- -- 100
2019-01-23 20:00:00 5.6 9 Norte 32 Nordeste 4.6 -- -- 100
2019-01-23 19:00:00 5.7 11 Norte 49 Oeste 1.4 -- -- 100
2019-01-23 18:00:00 5.6 10 Norte 43 Noroeste 1 -- -- 100
2019-01-23 17:00:00 5.7 9 Norte 32 Nordeste 1.6 -- -- 100
2019-01-23 16:00:00 5.7 8 Noroeste 55 Norte 1 -- -- 100
2019-01-23 15:00:00 6 13 Noroeste 29 Noroeste 1.4 -- -- 100
2019-01-23 14:00:00 5.3 16 Norte 57 Nordeste 4.4 -- -- 100
2019-01-23 13:00:00 6 10 Norte 39 Oeste 4.4 -- -- 100
2019-01-23 12:00:00 6.6 15 Noroeste 40 Oeste 1.2 -- -- 100
2019-01-23 11:00:00 6.3 10 Noroeste 54 Norte 1.4 -- -- 100
2019-01-23 10:00:00 6.6 11 Noroeste 38 Nordeste 2 -- -- 100
2019-01-23 09:00:00 6.9 15 Norte 52 Noroeste 0.8 -- -- 100
2019-01-23 08:00:00 7.3 12 Noroeste 81 Nordeste 6.6 -- -- 100
2019-01-23 07:00:00 7.6 21 Noroeste 59 Noroeste 5 -- -- 100
2019-01-23 06:00:00 5.6 9 Norte 21 Norte 6.6 -- -- 100
2019-01-23 05:00:00 4.9 6 Norte 14 Noroeste 4 -- -- 100
2019-01-23 04:00:00 4.7 3 Norte 10 Noroeste 4 -- -- 100
2019-01-23 03:00:00 4.3 4 Norte 14 Noroeste 4.4 -- -- 100
2019-01-23 02:00:00 4.5 5 Noroeste 18 Oeste 4.6 -- -- 100
2019-01-23 01:00:00 4.3 5 Noroeste 18 Oeste 4.8 -- -- 100
2019-01-23 00:00:00 3.9 6 Noroeste 15 Noroeste 3.2 -- -- 100
2019-01-22 23:00:00 3.1 4 Noroeste 12 Noroeste 3.4 -- -- 100
2019-01-22 22:00:00 2.6 5 Norte 16 Noroeste 1 -- -- 100
2019-01-22 21:00:00 2.5 7 Norte 18 Noroeste 1.4 -- -- 100
2019-01-22 20:00:00 2.8 5 Norte 14 Norte 1.6 -- -- 100
2019-01-22 19:00:00 3.2 5 Norte 24 Noroeste 0.8 -- -- 100
2019-01-22 18:00:00 3.5 6 Norte 21 Noroeste 0.8 -- -- 100
2019-01-22 17:00:00 3.8 9 Noroeste 35 Noroeste 1.8 -- -- 100
2019-01-22 16:00:00 3.9 8 Noroeste 23 Sudoeste 1.2 -- -- 100
2019-01-22 15:00:00 3.4 8 Noroeste 31 Noroeste 5.4 -- -- 100
2019-01-22 14:00:00 3.9 12 Noroeste 32 Oeste 2.2 -- -- 100
2019-01-22 13:00:00 3.8 5 Norte 17 Norte 2.2 -- -- 100
2019-01-22 12:00:00 3.8 5 Norte 15 Noroeste 1.8 -- -- 100
2019-01-22 11:00:00 3.6 4 Norte 13 Norte 1.4 -- -- 100
2019-01-22 10:00:00 2.7 5 Sudeste 10 Este 0.2 -- -- 100
2019-01-22 09:00:00 3.1 3 Sudeste 11 Nordeste 0.4 -- -- 100
2019-01-22 08:00:00 3 0 Calma 6 Norte 0 -- -- 100
2019-01-22 07:00:00 2.4 2 Sur 7 Noroeste 0.2 -- -- 100
2019-01-22 06:00:00 2.5 0 Calma 6 Noroeste 0 -- -- 100
2019-01-22 05:00:00 1.9 0 Calma 5 Sur 0 -- -- 100
2019-01-22 04:00:00 1.4 3 Sudoeste 9 Sur 0 -- -- 100
2019-01-22 03:00:00 1.7 2 Sur 11 Noroeste 0 -- -- 100
2019-01-22 02:00:00 1.7 4 Oeste 9 Oeste 0 -- -- 100
2019-01-22 01:00:00 2.5 5 Oeste 12 Noroeste 0 -- -- 98
2019-01-22 00:00:00 2 4 Noroeste 13 Oeste 0 -- -- 99
2019-01-21 23:00:00 1.7 5 Noroeste 13 Noroeste 0 -- -- 99
2019-01-21 22:00:00 2.1 4 Noroeste 13 Noroeste 0 -- -- 97
2019-01-21 21:00:00 2.3 6 Oeste 15 Norte 0 -- -- 97
2019-01-21 20:00:00 1.3 6 Oeste 13 Oeste 0 -- -- 99
2019-01-21 19:00:00 2.8 6 Oeste 13 Oeste 0 -- -- 93
2019-01-21 18:00:00 2.7 5 Noroeste 9 Noroeste 0 -- -- 94
2019-01-21 17:00:00 4.1 4 Noroeste 17 Noroeste 0 -- -- 88
2019-01-21 16:00:00 5.3 6 Noroeste 18 Noroeste 0 -- -- 80
2019-01-21 15:00:00 4.9 5 Norte 16 Nordeste 0 -- -- 92
2019-01-21 14:00:00 4.6 4 Noroeste 9 Noroeste 0 -- -- 99
2019-01-21 13:00:00 4.2 4 Noroeste 16 Oeste 0.8 -- -- 98
2019-01-21 12:00:00 4.9 4 Noroeste 20 Noroeste 0 -- -- 91
2019-01-21 11:00:00 4.7 7 Noroeste 20 Noroeste 0.2 -- -- 95
2019-01-21 10:00:00 4.2 5 Noroeste 20 Oeste 0 -- -- 97
2019-01-21 09:00:00 4.1 11 Noroeste 22 Oeste 0 -- -- 100
2019-01-21 08:00:00 4.1 9 Noroeste 21 Noroeste 0 -- -- 100
2019-01-21 07:00:00 4.2 10 Noroeste 23 Oeste 0 -- -- 100
2019-01-21 06:00:00 4.3 4 Noroeste 21 Nordeste 1.4 -- -- 100
2019-01-21 05:00:00 4.2 7 Noroeste 22 Oeste 0.4 -- -- 100
2019-01-21 04:00:00 4.3 5 Noroeste 15 Noroeste 0.2 -- -- 100
2019-01-21 03:00:00 4.4 2 Sur 14 Noroeste 1.4 -- -- 100
2019-01-21 02:00:00 4.4 6 Oeste 16 Oeste 0.8 -- -- 100
2019-01-21 01:00:00 4.3 3 Oeste 19 Noroeste 3.4 -- -- 100
2019-01-21 00:00:00 4.8 8 Noroeste 19 Oeste 2 -- -- 100
2019-01-20 23:00:00 4.8 6 Oeste 25 Oeste 0.4 -- -- 100
2019-01-20 22:00:00 5 10 Oeste 25 Oeste 0.8 -- -- 100
2019-01-20 21:00:00 5.2 5 Noroeste 20 Oeste 0 -- -- 100
2019-01-20 20:00:00 5.3 8 Noroeste 24 Noroeste 0.6 -- -- 100
2019-01-20 19:00:00 5.3 8 Noroeste 23 Oeste 2.6 -- -- 100
2019-01-20 18:00:00 5.5 9 Noroeste 28 Noroeste 0.2 -- -- 100
2019-01-20 17:00:00 5.3 6 Noroeste 17 Oeste 4 -- -- 100
2019-01-20 16:00:00 6.5 5 Oeste 18 Oeste 0 -- -- 99
2019-01-20 15:00:00 5.9 9 Oeste 27 Noroeste 1 -- -- 100
2019-01-20 14:00:00 5.6 4 Norte 23 Noroeste 1.6 -- -- 100
2019-01-20 13:00:00 6.7 6 Noroeste 20 Noroeste 0.2 -- -- 100
2019-01-20 12:00:00 5.9 9 Oeste 27 Oeste 0.2 -- -- 100
2019-01-20 11:00:00 5.1 13 Oeste 25 Oeste 0.4 -- -- 100
2019-01-20 10:00:00 5.1 9 Noroeste 21 Noroeste 0.8 -- -- 100
2019-01-20 09:00:00 4.9 7 Norte 24 Noroeste 2 -- -- 100
2019-01-20 08:00:00 5.3 5 Noroeste 30 Noroeste 0.4 -- -- 100
2019-01-20 07:00:00 5 8 Noroeste 15 Noroeste 0.2 -- -- 100
2019-01-20 06:00:00 5.5 8 Noroeste 21 Noroeste 0.8 -- -- 100
2019-01-20 05:00:00 5.5 5 Noroeste 18 Noroeste 0 -- -- 100
2019-01-20 04:00:00 4.9 5 Noroeste 12 Noroeste 0 -- -- 100
2019-01-20 03:00:00 4.5 2 Sudoeste 4 Sudoeste 0 -- -- 100
2019-01-20 02:00:00 4.5 2 Sudoeste 5 Sudeste 0 -- -- 100
2019-01-20 01:00:00 4.5 2 Sur 6 Sudeste 0 -- -- 100
2019-01-20 00:00:00 4.7 0 Calma 8 Sur 0.2 -- -- 98
2019-01-19 23:00:00 5.2 4 Sudeste 12 Sudeste 0.4 -- -- 91
2019-01-19 22:00:00 5.4 4 Sudeste 23 Sur 0.4 -- -- 91
2019-01-19 21:00:00 5.9 5 Sudeste 18 Norte 0 -- -- 86
2019-01-19 20:00:00 5.7 6 Sudeste 21 Sudeste 0 -- -- 87
2019-01-19 19:00:00 5.7 11 Sudeste 27 Sudeste 0 -- -- 87
2019-01-19 18:00:00 6.1 4 Nordeste 20 Este 0 -- -- 85
2019-01-19 17:00:00 6.7 4 Nordeste 21 Norte 0 -- -- 80
2019-01-19 16:00:00 7.1 6 Nordeste 27 Este 0 -- -- 77
2019-01-19 15:00:00 7.4 8 Nordeste 21 Este 0 -- -- 74
2019-01-19 14:00:00 8.1 4 Sudoeste 14 Sudeste 0 -- -- 74
2019-01-19 13:00:00 7.6 4 Este 10 Sudoeste 0 -- -- 80
2019-01-19 12:00:00 7.1 4 Este 19 Sudeste 0 -- -- 81
2019-01-19 11:00:00 4.3 3 Sur 10 Sudeste 0 -- -- 98
2019-01-19 10:00:00 3.5 5 Sudeste 10 Sudeste 0 -- -- 100
2019-01-19 09:00:00 2.4 4 Sur 12 Sudeste 0 -- -- 100
2019-01-19 08:00:00 2.1 3 Sur 10 Oeste 0 -- -- 100
2019-01-19 07:00:00 2.1 3 Sur 10 Sudeste 0 -- -- 100
2019-01-19 06:00:00 2.6 3 Sudoeste 8 Oeste 0 -- -- 100
2019-01-19 05:00:00 3.3 4 Sur 6 Sur 0.2 -- -- 100
2019-01-19 04:00:00 3.6 3 Sur 8 Sudeste 0 -- -- 100
2019-01-19 03:00:00 3.6 2 Sur 9 Sudeste 0 -- -- 100
2019-01-19 02:00:00 3.6 6 Sudeste 12 Sudeste 0.2 -- -- 100
2019-01-19 01:00:00 3.6 5 Sudeste 10 Sur 0.6 -- -- 100
2019-01-19 00:00:00 3.7 4 Sudeste 9 Sudeste 1.6 -- -- 100